Time;durP1;ratioP1;P1;durP2;ratioP2;P2;SDS_P1;SDS_P2;PMS_P1;PMS_P2;Temp;Humidity;BMP_temperature;BMP_pressure;BME280_temperature;BME280_humidity;BME280_pressure;Samples;Min_cycle;Max_cycle;Signal;HPM_P1;HPM_P2
2023/12/04 00:01:22;;;;;;;40.00;23.00;;;;;;;-1.21;100.00;101026.53;105492;1257;99177;-75
2023/12/04 00:04:07;;;;;;;40.00;22.60;;;;;;;-1.20;100.00;101028.91;105406;1262;97873;-75
2023/12/04 00:06:53;;;;;;;38.50;22.40;;;;;;;-1.19;100.00;101027.46;105346;1263;97877;-76
2023/12/04 00:09:39;;;;;;;39.90;21.90;;;;;;;-1.18;100.00;101026.90;105406;1263;97900;-76
2023/12/04 00:12:24;;;;;;;42.30;21.80;;;;;;;-1.18;100.00;101027.55;105412;1263;102636;-76
2023/12/04 00:15:10;;;;;;;35.20;19.90;;;;;;;-1.17;100.00;101027.86;105399;1262;100363;-76
2023/12/04 00:17:56;;;;;;;36.90;19.30;;;;;;;-1.16;100.00;101026.58;105364;1263;98056;-76
2023/12/04 00:20:42;;;;;;;33.00;19.30;;;;;;;-1.13;100.00;101027.25;105156;1262;97970;-77
2023/12/04 00:23:27;;;;;;;37.50;21.60;;;;;;;-1.12;100.00;101029.61;105085;1264;97970;-76
2023/12/04 00:26:14;;;;;;;34.50;19.60;;;;;;;-1.09;100.00;101033.48;105110;1259;102691;-75
2023/12/04 00:28:59;;;;;;;34.70;20.70;;;;;;;-1.09;100.00;101034.30;105311;1260;99889;-76
2023/12/04 00:31:45;;;;;;;37.80;21.20;;;;;;;-1.08;100.00;101036.73;105176;1266;98186;-76
2023/12/04 00:34:30;;;;;;;32.70;20.10;;;;;;;-1.08;100.00;101042.29;105400;1259;98851;-75
2023/12/04 00:37:15;;;;;;;37.40;20.60;;;;;;;-1.08;100.00;101047.02;105436;1263;97986;-75
2023/12/04 00:40:01;;;;;;;34.50;19.30;;;;;;;-1.08;100.00;101053.92;105434;1275;102630;-75
2023/12/04 00:42:47;;;;;;;30.60;18.00;;;;;;;-1.08;100.00;101057.60;105360;1259;99086;-76
2023/12/04 00:45:32;;;;;;;32.50;17.70;;;;;;;-1.07;100.00;101058.60;105383;1259;99766;-76
2023/12/04 00:48:18;;;;;;;27.80;16.40;;;;;;;-1.09;100.00;101061.30;105406;1259;97881;-75
2023/12/04 00:51:04;;;;;;;26.80;16.50;;;;;;;-1.09;100.00;101065.71;105464;1259;97763;-76
2023/12/04 00:53:49;;;;;;;28.60;16.50;;;;;;;-1.10;100.00;101072.21;105313;1260;103125;-76
2023/12/04 00:56:38;;;;;;;30.90;17.70;;;;;;;-1.09;100.00;101078.31;105438;1263;100474;-76
2023/12/04 00:59:23;;;;;;;29.40;17.80;;;;;;;-1.12;100.00;101081.65;105384;1257;98014;-76
2023/12/04 01:02:09;;;;;;;29.90;17.50;;;;;;;-1.15;100.00;101077.86;105364;1262;97970;-76
2023/12/04 01:04:54;;;;;;;30.30;17.60;;;;;;;-1.22;100.00;101080.04;105499;1259;98842;-75
2023/12/04 01:07:40;;;;;;;29.70;18.00;;;;;;;-1.27;100.00;101079.16;105484;1263;101342;-75
2023/12/04 01:10:26;;;;;;;27.00;15.80;;;;;;;-1.31;100.00;101082.02;105352;1261;99258;-76
2023/12/04 01:13:11;;;;;;;24.30;14.60;;;;;;;-1.32;100.00;101074.93;105020;1259;98947;-75
2023/12/04 01:15:57;;;;;;;26.60;16.00;;;;;;;-1.33;100.00;101075.02;105431;1258;97888;-76
2023/12/04 01:18:43;;;;;;;25.60;14.70;;;;;;;-1.35;100.00;101077.79;105377;1258;98395;-75
2023/12/04 01:21:28;;;;;;;27.00;15.70;;;;;;;-1.37;100.00;101071.46;105260;1260;102996;-76
2023/12/04 01:24:15;;;;;;;29.00;16.60;;;;;;;-1.37;100.00;101076.01;105461;1262;99351;-76
2023/12/04 01:27:01;;;;;;;25.10;15.10;;;;;;;-1.39;100.00;101089.45;105319;1258;98841;-75
2023/12/04 01:29:46;;;;;;;27.30;15.30;;;;;;;-1.41;100.00;101095.19;105370;1260;97926;-75
2023/12/04 01:32:32;;;;;;;28.40;16.10;;;;;;;-1.45;100.00;101103.64;105480;1262;98491;-77
2023/12/04 01:35:18;;;;;;;28.80;15.50;;;;;;;-1.48;100.00;101112.75;105462;1261;101394;-76
2023/12/04 01:38:03;;;;;;;23.90;15.40;;;;;;;-1.52;100.00;101121.25;105420;1260;100336;-76
2023/12/04 01:40:49;;;;;;;22.10;13.40;;;;;;;-1.54;100.00;101122.27;105479;1262;97959;-76
2023/12/04 01:43:35;;;;;;;25.90;14.90;;;;;;;-1.58;100.00;101125.47;105421;1262;98150;-75
2023/12/04 01:46:21;;;;;;;23.10;13.70;;;;;;;-1.60;100.00;101127.18;105235;1259;98565;-75
2023/12/04 01:49:07;;;;;;;27.20;15.10;;;;;;;-1.62;100.00;101126.63;104866;1260;102757;-76
2023/12/04 01:51:52;;;;;;;24.50;14.20;;;;;;;-1.62;100.00;101130.65;105042;1262;99363;-76
2023/12/04 01:54:38;;;;;;;20.70;13.10;;;;;;;-1.60;100.00;101133.11;105188;1262;98304;-74
2023/12/04 01:57:24;;;;;;;23.90;14.00;;;;;;;-1.59;100.00;101130.60;105163;1262;97913;-76
2023/12/04 02:00:11;;;;;;;20.20;13.40;;;;;;;-1.58;100.00;101128.45;105331;1264;98001;-75
2023/12/04 02:02:58;;;;;;;25.00;14.80;;;;;;;-1.56;100.00;101123.61;108149;1258;101370;-77
2023/12/04 02:05:44;;;;;;;22.10;13.30;;;;;;;-1.54;100.00;101122.45;105263;1264;100359;-76
2023/12/04 02:08:30;;;;;;;21.90;12.90;;;;;;;-1.53;100.00;101123.44;105299;1260;98883;-76
2023/12/04 02:11:16;;;;;;;22.90;13.60;;;;;;;-1.53;100.00;101122.71;105345;1264;99423;-76
2023/12/04 02:14:01;;;;;;;25.00;14.00;;;;;;;-1.53;100.00;101122.02;105516;1262;98435;-76
2023/12/04 02:16:48;;;;;;;27.00;15.30;;;;;;;-1.52;100.00;101122.69;105354;1262;101956;-75
2023/12/04 02:19:34;;;;;;;24.30;14.10;;;;;;;-1.51;100.00;101123.31;105663;1262;99143;-76
2023/12/04 02:22:19;;;;;;;24.70;14.50;;;;;;;-1.53;100.00;101122.73;105317;1259;97977;-76
2023/12/04 02:25:07;;;;;;;24.70;14.00;;;;;;;-1.54;100.00;101116.88;105326;1260;98568;-75
2023/12/04 02:27:54;;;;;;;25.60;15.20;;;;;;;-1.59;100.00;101119.06;105351;1264;98469;-77
2023/12/04 02:30:43;;;;;;;22.00;14.60;;;;;;;-1.62;100.00;101119.77;105104;1259;103003;-76
2023/12/04 02:33:29;;;;;;;25.70;15.50;;;;;;;-1.62;100.00;101118.92;105157;1274;99086;-76
2023/12/04 02:36:15;;;;;;;26.60;15.20;;;;;;;-1.59;100.00;101121.35;105161;1258;99006;-76
2023/12/04 02:39:01;;;;;;;24.40;14.40;;;;;;;-1.58;100.00;101118.84;105115;1263;97907;-75
2023/12/04 02:41:47;;;;;;;28.30;15.00;;;;;;;-1.56;100.00;101119.41;105241;1260;98466;-75
2023/12/04 02:44:32;;;;;;;27.90;16.90;;;;;;;-1.55;100.00;101124.13;105128;1263;102090;-77
2023/12/04 02:47:19;;;;;;;25.80;16.40;;;;;;;-1.59;100.00;101123.63;105199;1267;99070;-76
2023/12/04 02:50:05;;;;;;;26.60;16.20;;;;;;;-1.60;100.00;101129.67;105163;1262;99444;-76
2023/12/04 02:52:50;;;;;;;30.70;17.90;;;;;;;-1.64;100.00;101130.42;105306;1257;98108;-76
2023/12/04 02:55:36;;;;;;;26.50;15.90;;;;;;;-1.66;100.00;101135.26;105399;1257;97967;-76
2023/12/04 02:58:21;;;;;;;31.00;16.50;;;;;;;-1.66;100.00;101133.03;105345;1263;101323;-76
2023/12/04 03:01:07;;;;;;;29.80;16.30;;;;;;;-1.66;100.00;101134.08;105537;1262;99098;-76
2023/12/04 03:03:52;;;;;;;29.90;18.60;;;;;;;-1.70;100.00;101132.90;105385;1262;98007;-75
2023/12/04 03:06:38;;;;;;;31.80;17.40;;;;;;;-1.72;100.00;101136.36;105276;1263;98034;-75
2023/12/04 03:09:23;;;;;;;33.20;18.40;;;;;;;-1.75;100.00;101137.63;105476;1259;99343;-75
2023/12/04 03:12:09;;;;;;;32.10;17.70;;;;;;;-1.79;100.00;101140.31;105348;1261;101370;-75
2023/12/04 03:14:54;;;;;;;29.70;17.00;;;;;;;-1.82;100.00;101141.17;105398;1259;100471;-75
2023/12/04 03:17:40;;;;;;;29.10;17.00;;;;;;;-1.83;100.00;101145.29;105420;1259;98683;-75
2023/12/04 03:20:25;;;;;;;29.70;15.80;;;;;;;-1.84;100.00;101145.02;105350;1259;98048;-75
2023/12/04 03:23:11;;;;;;;28.80;16.20;;;;;;;-1.81;100.00;101147.98;105334;1263;97723;-75
2023/12/04 03:25:57;;;;;;;30.00;17.70;;;;;;;-1.80;100.00;101154.73;105365;1259;102412;-76
2023/12/04 03:28:42;;;;;;;28.40;16.30;;;;;;;-1.80;100.00;101156.86;105452;1259;100324;-76
2023/12/04 03:31:28;;;;;;;31.80;18.50;;;;;;;-1.81;100.00;101157.77;105367;1259;98679;-76
2023/12/04 03:34:13;;;;;;;35.90;20.00;;;;;;;-1.84;100.00;101156.02;105328;1262;97958;-76
2023/12/04 03:36:59;;;;;;;33.20;17.70;;;;;;;-1.88;100.00;101157.66;105343;1262;97966;-76
2023/12/04 03:39:44;;;;;;;29.50;17.60;;;;;;;-1.90;100.00;101155.70;105333;1262;102659;-75
2023/12/04 03:42:30;;;;;;;30.30;18.40;;;;;;;-1.94;100.00;101161.02;105372;1259;99070;-76
2023/12/04 03:45:15;;;;;;;33.70;18.80;;;;;;;-1.96;100.00;101166.74;105077;1257;99132;-75
2023/12/04 03:48:01;;;;;;;34.70;18.30;;;;;;;-1.97;100.00;101172.08;105106;1263;98004;-76
2023/12/04 03:50:46;;;;;;;31.00;18.10;;;;;;;-1.97;100.00;101172.06;105161;1259;98444;-75
2023/12/04 03:53:32;;;;;;;33.70;19.00;;;;;;;-1.98;100.00;101172.52;105144;1257;101377;-76
2023/12/04 03:56:18;;;;;;;31.00;17.20;;;;;;;-2.01;100.00;101176.49;105217;1262;99105;-75
2023/12/04 03:59:03;;;;;;;33.50;19.00;;;;;;;-2.01;100.00;101174.24;105027;1259;98727;-75
2023/12/04 04:01:49;;;;;;;33.30;17.60;;;;;;;-2.00;100.00;101176.65;105110;1258;97955;-76
2023/12/04 04:04:34;;;;;;;36.80;19.50;;;;;;;-2.00;100.00;101178.58;105152;1262;97949;-75
2023/12/04 04:07:20;;;;;;;33.70;19.00;;;;;;;-2.02;100.00;101177.58;105167;1262;101853;-76
2023/12/04 04:10:06;;;;;;;33.60;18.30;;;;;;;-2.02;100.00;101180.04;105052;1262;100370;-75
2023/12/04 04:12:52;;;;;;;34.80;19.00;;;;;;;-2.01;100.00;101178.79;105146;1259;98534;-76
2023/12/04 04:15:38;;;;;;;34.80;19.50;;;;;;;-2.00;100.00;101180.66;105480;1259;98842;-76
2023/12/04 04:18:23;;;;;;;36.00;19.00;;;;;;;-1.98;100.00;101180.36;105389;1262;97919;-76
2023/12/04 04:21:09;;;;;;;28.50;17.30;;;;;;;-1.98;100.00;101184.02;105386;1257;102600;-76
2023/12/04 04:23:54;;;;;;;30.80;16.20;;;;;;;-2.00;100.00;101184.52;105509;1262;99097;-75
2023/12/04 04:26:40;;;;;;;36.60;18.70;;;;;;;-2.00;100.00;101181.36;105368;1259;99434;-75
2023/12/04 04:29:25;;;;;;;31.80;17.70;;;;;;;-2.01;100.00;101181.58;105337;1259;98525;-76
2023/12/04 04:32:11;;;;;;;34.20;18.60;;;;;;;-2.00;100.00;101178.92;105360;1263;98577;-75
2023/12/04 04:34:57;;;;;;;34.30;18.50;;;;;;;-2.02;100.00;101180.04;105304;1259;101338;-76
2023/12/04 04:37:43;;;;;;;35.20;17.70;;;;;;;-2.07;100.00;101181.79;105322;1257;101146;-75
2023/12/04 04:40:28;;;;;;;32.40;18.10;;;;;;;-2.09;100.00;101176.64;105279;1262;99006;-76
2023/12/04 04:43:14;;;;;;;39.30;20.30;;;;;;;-2.13;100.00;101175.84;105313;1257;97992;-75
2023/12/04 04:45:59;;;;;;;34.30;18.30;;;;;;;-2.16;100.00;101181.50;105336;1259;97968;-75
2023/12/04 04:48:45;;;;;;;30.00;17.70;;;;;;;-2.19;100.00;101182.86;105470;1257;101927;-76
2023/12/04 04:51:30;;;;;;;33.10;19.20;;;;;;;-2.18;100.00;101179.63;105520;1257;100297;-76
2023/12/04 04:54:16;;;;;;;34.60;18.10;;;;;;;-2.19;100.00;101181.47;105436;1263;98828;-76
2023/12/04 04:57:02;;;;;;;33.70;19.40;;;;;;;-2.21;100.00;101182.67;105251;1259;97859;-75
2023/12/04 04:59:47;;;;;;;32.00;16.70;;;;;;;-2.22;100.00;101183.04;105397;1262;97971;-75
2023/12/04 05:02:34;;;;;;;34.60;18.20;;;;;;;-2.20;100.00;101182.42;105302;1260;102995;-75
2023/12/04 05:05:19;;;;;;;35.40;19.50;;;;;;;-2.20;100.00;101182.42;105195;1262;99171;-75
2023/12/04 05:08:05;;;;;;;31.30;17.20;;;;;;;-2.21;100.00;101187.86;105032;1272;97980;-76
2023/12/04 05:10:51;;;;;;;35.20;19.50;;;;;;;-2.22;100.00;101187.44;105030;1259;97993;-75
2023/12/04 05:13:37;;;;;;;38.50;20.30;;;;;;;-2.22;100.00;101187.23;105053;1262;97925;-75
2023/12/04 05:16:22;;;;;;;34.60;18.60;;;;;;;-2.22;100.00;101186.70;105121;1260;102612;-76
2023/12/04 05:19:08;;;;;;;36.00;19.30;;;;;;;-2.23;100.00;101187.31;105122;1262;99714;-76
2023/12/04 05:21:54;;;;;;;36.60;20.40;;;;;;;-2.25;100.00;101188.15;105047;1258;98059;-75
2023/12/04 05:24:39;;;;;;;41.10;19.90;;;;;;;-2.26;100.00;101190.27;105158;1259;97973;-76
2023/12/04 05:27:25;;;;;;;34.70;19.40;;;;;;;-2.23;100.00;101188.40;105126;1261;97883;-76
2023/12/04 05:30:10;;;;;;;40.10;20.90;;;;;;;-2.24;100.00;101190.67;105032;1259;102650;-76
2023/12/04 05:32:56;;;;;;;37.10;21.30;;;;;;;-2.26;100.00;101189.41;105071;1264;100325;-75
2023/12/04 05:35:42;;;;;;;43.30;23.00;;;;;;;-2.27;100.00;101188.79;105061;1260;98573;-75
2023/12/04 05:38:27;;;;;;;36.90;20.00;;;;;;;-2.25;100.00;101194.26;105195;1259;98391;-75
2023/12/04 05:41:13;;;;;;;40.60;20.20;;;;;;;-2.22;100.00;101194.24;105099;1262;98578;-76
2023/12/04 05:43:59;;;;;;;38.50;21.20;;;;;;;-2.20;100.00;101191.30;105221;1259;101341;-76
2023/12/04 05:46:44;;;;;;;42.00;21.10;;;;;;;-2.19;100.00;101187.94;105128;1259;99342;-76
2023/12/04 05:49:30;;;;;;;41.00;21.70;;;;;;;-2.18;100.00;101185.93;105074;1265;99307;-76
2023/12/04 05:52:16;;;;;;;43.80;23.20;;;;;;;-2.16;100.00;101188.62;105038;1259;97972;-76
2023/12/04 05:55:02;;;;;;;39.60;20.70;;;;;;;-2.16;100.00;101192.32;105184;1259;98479;-76
2023/12/04 05:57:47;;;;;;;38.70;20.70;;;;;;;-2.16;100.00;101195.48;105178;1258;102668;-75
2023/12/04 06:00:33;;;;;;;39.00;19.70;;;;;;;-2.18;100.00;101196.09;105205;1262;99916;-75
2023/12/04 06:03:18;;;;;;;40.80;21.80;;;;;;;-2.18;100.00;101199.98;105126;1259;98896;-76
2023/12/04 06:06:04;;;;;;;39.80;21.40;;;;;;;-2.17;100.00;101200.94;105116;1262;97986;-76
2023/12/04 06:08:49;;;;;;;37.00;20.20;;;;;;;-2.18;100.00;101202.22;104991;1259;98498;-75
2023/12/04 06:11:35;;;;;;;43.50;22.70;;;;;;;-2.19;100.00;101202.25;105242;1258;101338;-76
2023/12/04 06:14:20;;;;;;;50.90;24.50;;;;;;;-2.16;100.00;101205.94;105228;1262;99728;-74
2023/12/04 06:17:06;;;;;;;48.80;24.10;;;;;;;-2.14;100.00;101206.92;105026;1262;98548;-75
2023/12/04 06:19:53;;;;;;;47.90;23.40;;;;;;;-2.13;100.00;101208.23;105047;1258;98631;-75
2023/12/04 06:22:39;;;;;;;43.00;22.40;;;;;;;-2.12;100.00;101212.71;104992;1263;99352;-76
2023/12/04 06:25:25;;;;;;;47.30;24.60;;;;;;;-2.14;100.00;101212.84;105047;1259;103218;-75
2023/12/04 06:28:10;;;;;;;42.30;22.10;;;;;;;-2.14;100.00;101212.16;105025;1262;99215;-75
2023/12/04 06:30:56;;;;;;;43.80;23.20;;;;;;;-2.12;100.00;101212.21;105040;1258;99343;-75
2023/12/04 06:33:41;;;;;;;44.40;22.30;;;;;;;-2.10;100.00;101211.86;105050;1265;99241;-75
2023/12/04 06:36:31;;;;;;;46.80;23.50;;;;;;;-2.09;100.00;101212.19;105073;1259;98421;-75
2023/12/04 06:39:17;;;;;;;54.30;26.40;;;;;;;-2.06;100.00;101211.33;105337;1260;102625;-76
2023/12/04 06:42:07;;;;;;;50.10;24.20;;;;;;;-2.05;100.00;101211.77;105336;1259;100319;-76
2023/12/04 06:44:52;;;;;;;61.10;26.30;;;;;;;-2.04;100.00;101208.58;105311;1259;97985;-75
2023/12/04 06:47:40;;;;;;;47.60;22.90;;;;;;;-2.03;100.00;101207.09;105279;1259;98072;-76
2023/12/04 06:50:27;;;;;;;53.70;27.00;;;;;;;-2.05;100.00;101211.95;105275;1260;98431;-77
2023/12/04 06:53:12;;;;;;;49.50;22.60;;;;;;;-2.05;100.00;101213.37;105264;1259;101343;-75
2023/12/04 06:55:57;;;;;;;53.10;25.00;;;;;;;-2.06;100.00;101215.69;105088;1262;100067;-76
2023/12/04 06:58:43;;;;;;;46.30;22.70;;;;;;;-2.05;100.00;101212.29;105022;1262;98506;-75
2023/12/04 07:01:28;;;;;;;42.20;21.70;;;;;;;-2.01;100.00;101215.71;105055;1259;98169;-77
2023/12/04 07:04:20;;;;;;;53.50;26.10;;;;;;;-1.97;100.00;101224.23;105106;1259;98514;-76
2023/12/04 07:07:06;;;;;;;44.20;22.80;;;;;;;-1.94;100.00;101227.55;104999;1264;101349;-77
2023/12/04 07:09:51;;;;;;;44.90;23.00;;;;;;;-1.93;100.00;101230.62;104876;1264;100368;-76
2023/12/04 07:12:37;;;;;;;45.00;23.80;;;;;;;-1.91;100.00;101229.84;105052;1262;97888;-76
2023/12/04 07:15:22;;;;;;;49.00;24.70;;;;;;;-1.92;100.00;101230.75;105109;1264;98496;-75
2023/12/04 07:18:08;;;;;;;60.30;31.80;;;;;;;-1.93;100.00;101232.22;105218;1265;99516;-75
2023/12/04 07:20:54;;;;;;;57.80;29.30;;;;;;;-1.96;100.00;101230.79;105297;1259;101977;-76
2023/12/04 07:23:39;;;;;;;62.40;33.10;;;;;;;-1.94;100.00;101229.30;105265;1263;100884;-75
2023/12/04 07:26:26;;;;;;;64.40;32.90;;;;;;;-1.91;100.00;101234.70;105089;1264;97913;-75
2023/12/04 07:29:11;;;;;;;62.60;36.50;;;;;;;-1.86;100.00;101238.45;105137;1259;98032;-75
2023/12/04 07:31:56;;;;;;;55.40;31.40;;;;;;;-1.84;100.00;101242.52;105102;1263;98512;-75
2023/12/04 07:34:42;;;;;;;58.50;31.50;;;;;;;-1.83;100.00;101239.65;105149;1263;101320;-76
2023/12/04 07:37:30;;;;;;;60.80;31.80;;;;;;;-1.83;100.00;101241.54;105276;1259;100355;-75
2023/12/04 07:40:15;;;;;;;54.20;27.60;;;;;;;-1.79;100.00;101243.93;105237;1263;98841;-76
2023/12/04 07:43:02;;;;;;;51.40;26.70;;;;;;;-1.78;100.00;101244.41;105206;1263;97837;-76
2023/12/04 07:45:48;;;;;;;51.00;24.70;;;;;;;-1.75;100.00;101247.00;105177;1259;98002;-77
2023/12/04 07:48:33;;;;;;;56.50;30.00;;;;;;;-1.72;100.00;101249.14;105299;1264;101409;-76
2023/12/04 07:51:22;;;;;;;53.00;27.30;;;;;;;-1.69;100.00;101245.95;105677;1261;99155;-86
2023/12/04 07:54:08;;;;;;;53.60;26.70;;;;;;;-1.65;100.00;101241.66;106032;1259;100406;-86
2023/12/04 07:56:54;;;;;;;50.80;25.80;;;;;;;-1.62;100.00;101241.29;106332;1259;98012;-87
2023/12/04 07:59:40;;;;;;;53.70;26.70;;;;;;;-1.56;100.00;101242.02;106407;1264;97923;-86
2023/12/04 08:02:26;;;;;;;50.60;25.90;;;;;;;-1.53;100.00;101243.39;106691;1259;102517;-87
2023/12/04 08:05:12;;;;;;;53.80;26.90;;;;;;;-1.51;100.00;101247.80;106033;1259;100279;-86
2023/12/04 08:07:58;;;;;;;50.30;26.40;;;;;;;-1.48;100.00;101247.10;106183;1265;99196;-84
2023/12/04 08:10:44;;;;;;;55.80;28.10;;;;;;;-1.49;100.00;101243.83;106297;1263;98956;-82
2023/12/04 08:13:29;;;;;;;53.30;27.70;;;;;;;-1.50;100.00;101243.73;106652;1262;96224;-81
2023/12/04 08:16:15;;;;;;;53.60;25.30;;;;;;;-1.49;100.00;101246.80;106654;1261;102422;-82
2023/12/04 08:19:00;;;;;;;53.50;26.10;;;;;;;-1.43;100.00;101245.73;106403;1264;99800;-81
2023/12/04 08:21:46;;;;;;;53.80;26.80;;;;;;;-1.40;100.00;101249.77;106034;1259;99033;-84
2023/12/04 08:24:31;;;;;;;49.90;23.90;;;;;;;-1.37;100.00;101255.55;105981;1259;97789;-84
2023/12/04 08:27:17;;;;;;;56.20;26.30;;;;;;;-1.32;100.00;101253.98;106150;1267;98511;-79
2023/12/04 08:30:06;;;;;;;48.70;25.60;;;;;;;-1.28;100.00;101251.98;105880;1259;102690;-78
2023/12/04 08:32:52;;;;;;;44.20;23.70;;;;;;;-1.29;100.00;101249.60;105770;1262;99696;-78
2023/12/04 08:35:37;;;;;;;52.40;25.70;;;;;;;-1.32;100.00;101250.81;105769;1259;97975;-80
2023/12/04 08:38:23;;;;;;;51.20;26.30;;;;;;;-1.29;100.00;101258.91;105907;1265;98618;-80
2023/12/04 08:41:08;;;;;;;45.40;23.00;;;;;;;-1.26;100.00;101262.73;106359;1262;98444;-80
2023/12/04 08:43:55;;;;;;;51.00;24.90;;;;;;;-1.27;100.00;101263.70;106112;1259;101344;-87
2023/12/04 08:46:44;;;;;;;50.40;22.20;;;;;;;-1.30;100.00;101267.50;106072;1265;99234;-84
2023/12/04 08:49:30;;;;;;;49.60;23.30;;;;;;;-1.30;100.00;101271.38;108117;1259;99133;-83
2023/12/04 08:52:15;;;;;;;45.80;23.70;;;;;;;-1.32;100.00;101276.58;105969;1261;98000;-86
2023/12/04 08:55:02;;;;;;;45.30;23.60;;;;;;;-1.34;100.00;101277.23;106630;1264;96568;-88
2023/12/04 08:57:48;;;;;;;47.10;23.40;;;;;;;-1.32;100.00;101280.11;106635;1259;102751;-87
2023/12/04 09:00:37;;;;;;;48.30;23.20;;;;;;;-1.30;100.00;101277.67;106312;1259;99254;-86
2023/12/04 09:03:27;;;;;;;54.40;26.10;;;;;;;-1.27;100.00;101276.83;106206;1264;97958;-86
2023/12/04 09:06:14;;;;;;;56.10;28.40;;;;;;;-1.26;100.00;101280.62;106280;1265;97887;-86
2023/12/04 09:09:00;;;;;;;51.10;26.30;;;;;;;-1.24;100.00;101288.73;106228;1263;98038;-86
2023/12/04 09:11:46;;;;;;;52.10;25.30;;;;;;;-1.23;100.00;101287.25;106216;1259;102248;-85
2023/12/04 09:14:32;;;;;;;53.10;26.90;;;;;;;-1.24;100.00;101289.02;106168;1263;99207;-86
2023/12/04 09:17:18;;;;;;;50.60;25.60;;;;;;;-1.22;100.00;101290.00;106193;1259;99078;-86
2023/12/04 09:20:05;;;;;;;54.80;24.00;;;;;;;-1.19;100.00;101279.61;106302;1260;98012;-89
2023/12/04 09:22:51;;;;;;;51.80;24.00;;;;;;;-1.14;100.00;101280.38;106079;1260;96506;-79
2023/12/04 09:25:36;;;;;;;44.90;23.70;;;;;;;-1.10;100.00;101280.23;105817;1259;101345;-79
2023/12/04 09:28:22;;;;;;;47.10;23.30;;;;;;;-1.04;100.00;101279.04;105754;1259;99311;-78
2023/12/04 09:31:10;;;;;;;46.20;22.70;;;;;;;-0.98;100.00;101274.77;105839;1263;99241;-79
2023/12/04 09:33:56;;;;;;;54.40;26.80;;;;;;;-0.89;100.00;101268.95;105848;1263;97967;-78
2023/12/04 09:36:41;;;;;;;59.40;30.80;;;;;;;-0.85;100.00;101268.67;105788;1263;98026;-79
2023/12/04 09:39:28;;;;;;;96.50;42.80;;;;;;;-0.80;100.00;101270.27;105779;1262;101524;-79
2023/12/04 09:42:14;;;;;;;64.00;33.50;;;;;;;-0.77;100.00;101272.23;105748;1263;100930;-79
2023/12/04 09:45:01;;;;;;;54.10;30.30;;;;;;;-0.79;99.69;101272.33;105624;1263;97870;-77
2023/12/04 09:50:52;;;;;;;43.20;22.60;;;;;;;-0.76;99.56;101271.27;106601;1258;98637;-85
2023/12/04 09:53:41;;;;;;;54.00;26.70;;;;;;;-0.75;99.20;101266.67;106109;1264;102649;-81
2023/12/04 09:56:27;;;;;;;47.50;23.90;;;;;;;-0.74;98.96;101267.83;106425;1258;100391;-87
2023/12/04 09:59:15;;;;;;;47.50;24.10;;;;;;;-0.68;98.93;101265.31;106080;1262;97898;-84
2023/12/04 10:02:01;;;;;;;46.70;24.30;;;;;;;-0.63;98.92;101256.38;106130;1257;97930;-83
2023/12/04 10:04:48;;;;;;;46.90;23.70;;;;;;;-0.60;98.85;101256.69;105966;1264;97966;-84
2023/12/04 10:07:36;;;;;;;51.10;23.50;;;;;;;-0.56;98.74;101260.61;106306;1258;102776;-87
2023/12/04 10:10:23;;;;;;;54.80;24.10;;;;;;;-0.53;98.65;101261.84;106436;1266;99192;-89
2023/12/04 10:13:13;;;;;;;54.30;27.70;;;;;;;-0.51;98.49;101262.05;106652;1257;98943;-89
2023/12/04 10:16:03;;;;;;;56.60;26.30;;;;;;;-0.51;98.21;101263.11;106790;1257;97979;-91
2023/12/04 10:19:14;;;;;;;45.90;24.00;;;;;;;-0.51;98.28;101261.16;106922;1258;98397;-88
2023/12/04 10:22:00;;;;;;;51.70;26.50;;;;;;;-0.51;98.05;101260.10;106355;1257;101256;-78
2023/12/04 10:24:46;;;;;;;50.90;24.40;;;;;;;-0.48;98.07;101258.55;105504;1259;99264;-77
2023/12/04 10:27:31;;;;;;;48.20;24.40;;;;;;;-0.43;98.33;101258.07;105573;1262;98144;-78
2023/12/04 10:30:26;;;;;;;48.40;24.60;;;;;;;-0.41;97.97;101258.98;105456;1259;98151;-78
2023/12/04 10:33:14;;;;;;;42.40;22.50;;;;;;;-0.37;98.31;101259.58;105512;1261;98484;-78
2023/12/04 10:35:59;;;;;;;51.10;24.50;;;;;;;-0.35;98.01;101257.51;105477;1262;101381;-78
2023/12/04 10:38:45;;;;;;;49.20;25.80;;;;;;;-0.36;97.69;101262.84;105709;1259;99166;-80
2023/12/04 10:41:34;;;;;;;53.30;26.70;;;;;;;-0.36;97.79;101259.30;106296;1260;99561;-83
2023/12/04 10:44:19;;;;;;;48.30;24.00;;;;;;;-0.31;98.18;101257.58;106187;1257;97952;-81
2023/12/04 10:47:06;;;;;;;45.40;23.20;;;;;;;-0.25;98.15;101256.33;107131;1259;95953;-82
2023/12/04 10:49:52;;;;;;;45.70;23.00;;;;;;;-0.22;97.88;101255.38;106017;1258;102195;-83
2023/12/04 10:52:40;;;;;;;43.70;22.40;;;;;;;-0.21;97.28;101251.30;105972;1259;99570;-81
2023/12/04 10:55:26;;;;;;;46.00;23.10;;;;;;;-0.19;97.41;101253.92;106038;1264;98084;-82
2023/12/04 10:58:14;;;;;;;45.60;21.90;;;;;;;-0.16;97.46;101256.39;106270;1258;97943;-87
2023/12/04 11:01:01;;;;;;;37.10;21.40;;;;;;;-0.14;97.14;101255.52;106191;1262;98491;-81
2023/12/04 11:03:56;;;;;;;42.80;23.10;;;;;;;-0.13;97.39;101253.67;106242;1259;102637;-84
2023/12/04 11:06:44;;;;;;;44.70;25.00;;;;;;;-0.10;97.12;101247.38;106379;1260;99760;-82
2023/12/04 11:09:34;;;;;;;46.60;24.20;;;;;;;-0.08;97.07;101246.36;106184;1256;97860;-83
2023/12/04 11:12:25;;;;;;;43.20;23.20;;;;;;;-0.11;96.42;101251.09;105878;1258;97947;-85
2023/12/04 11:15:16;;;;;;;42.50;21.50;;;;;;;-0.15;96.27;101249.80;105924;1258;98364;-80
2023/12/04 11:18:02;;;;;;;41.40;21.80;;;;;;;-0.15;96.39;101250.66;106824;1257;103123;-81
2023/12/04 11:20:58;;;;;;;42.50;22.60;;;;;;;-0.15;96.34;101249.47;106182;1259;100317;-82
2023/12/04 11:23:45;;;;;;;40.70;21.40;;;;;;;-0.13;96.64;101245.63;106111;1257;99348;-81
2023/12/04 11:26:33;;;;;;;40.40;22.20;;;;;;;-0.09;96.74;101241.33;106195;1259;97983;-82
2023/12/04 11:29:19;;;;;;;38.50;20.90;;;;;;;-0.03;96.89;101243.73;106426;1258;98414;-80
2023/12/04 11:32:09;;;;;;;37.30;20.60;;;;;;;0.02;96.93;101246.92;106271;1262;101488;-82
2023/12/04 11:34:59;;;;;;;35.30;18.30;;;;;;;0.06;96.80;101245.92;106268;1257;99737;-85
2023/12/04 11:37:47;;;;;;;38.30;20.50;;;;;;;0.07;96.62;101244.27;106036;1258;98576;-86
2023/12/04 11:40:32;;;;;;;46.60;26.20;;;;;;;0.10;96.55;101244.62;106186;1264;97919;-82
2023/12/04 11:43:29;;;;;;;43.30;21.90;;;;;;;0.08;96.09;101247.73;106242;1262;97957;-82
2023/12/04 11:46:23;;;;;;;41.90;21.20;;;;;;;0.06;95.99;101244.55;105930;1259;102362;-80
2023/12/04 11:49:28;;;;;;;40.30;21.80;;;;;;;0.05;96.10;101239.14;105969;1257;99194;-82
2023/12/04 11:52:14;;;;;;;45.40;23.00;;;;;;;0.07;96.25;101237.60;105844;1259;97886;-85
2023/12/04 11:55:06;;;;;;;52.30;27.20;;;;;;;0.11;96.47;101238.55;106031;1257;97897;-86
2023/12/04 11:57:54;;;;;;;47.10;24.40;;;;;;;0.16;96.36;101237.51;106385;1263;98985;-82
2023/12/04 12:00:42;;;;;;;43.90;25.50;;;;;;;0.15;95.75;101238.98;105941;1259;101340;-82
2023/12/04 12:03:50;;;;;;;47.30;25.70;;;;;;;0.15;95.92;101237.80;106342;1259;100352;-88
2023/12/04 12:06:36;;;;;;;52.40;27.50;;;;;;;0.15;95.96;101237.73;106454;1259;97895;-88
2023/12/04 12:09:22;;;;;;;56.70;28.30;;;;;;;0.18;96.05;101237.04;106271;1264;98002;-86
2023/12/04 12:12:28;;;;;;;58.70;28.70;;;;;;;0.20;95.78;101233.90;106490;1262;97792;-87
2023/12/04 12:15:14;;;;;;;51.50;26.90;;;;;;;0.19;95.51;101228.34;106402;1262;103501;-89
2023/12/04 12:18:09;;;;;;;59.20;28.30;;;;;;;0.16;95.37;101222.20;106404;1265;99340;-89
2023/12/04 12:21:02;;;;;;;55.70;29.20;;;;;;;0.17;95.56;101219.88;106488;1258;97890;-90
2023/12/04 12:24:15;;;;;;;66.00;31.40;;;;;;;0.22;95.70;101217.80;106640;1264;97929;-90